Time;durP1;ratioP1;P1;durP2;ratioP2;P2;SDS_P1;SDS_P2;PMS_P1;PMS_P2;Temp;Humidity;BMP_temperature;BMP_pressure;BME280_temperature;BME280_humidity;BME280_pressure;Samples;Min_cycle;Max_cycle;Signal;HPM_P1;HPM_P2
2024/02/09 06:00:15;;;;;;;2.90;1.70;;;;;;;;;;6060881;23;20533;-74
2024/02/09 06:02:42;;;;;;;2.43;1.73;;;;;;;;;;4954546;29;20575;-74
2024/02/09 06:05:08;;;;;;;6.87;1.90;;;;;;;;;;4956266;29;20412;-74
2024/02/09 06:07:34;;;;;;;7.07;1.90;;;;;;;;;;4956577;29;20923;-74
2024/02/09 06:10:00;;;;;;;2.37;1.70;;;;;;;;;;4955137;28;20409;-74
2024/02/09 06:12:26;;;;;;;1.97;1.70;;;;;;;;;;4965718;28;20436;-73
2024/02/09 06:14:59;;;;;;;10.20;1.87;;;;;;;;;;4985639;23;20870;-73
2024/02/09 06:17:25;;;;;;;4.03;1.20;;;;;;;;;;4955865;29;20432;-74
2024/02/09 06:19:51;;;;;;;1.93;1.60;;;;;;;;;;4955835;29;20884;-73
2024/02/09 06:22:17;;;;;;;3.80;1.63;;;;;;;;;;4956024;29;20463;-73
2024/02/09 06:24:43;;;;;;;3.53;1.50;;;;;;;;;;4955861;28;20920;-73
2024/02/09 06:27:09;;;;;;;3.47;1.53;;;;;;;;;;4955730;29;20437;-73
2024/02/09 06:29:37;;;;;;;1.60;1.50;;;;;;;;;;4955401;29;20409;-74
2024/02/09 06:32:04;;;;;;;3.83;1.60;;;;;;;;;;4955915;28;20468;-74
2024/02/09 06:34:30;;;;;;;3.03;1.93;;;;;;;;;;4954262;28;20826;-74
2024/02/09 06:36:56;;;;;;;1.80;1.20;;;;;;;;;;4940613;28;20418;-74
2024/02/09 06:39:23;;;;;;;2.33;1.40;;;;;;;;;;4936461;29;20405;-73
2024/02/09 06:41:49;;;;;;;3.00;1.47;;;;;;;;;;4936365;29;20421;-73
2024/02/09 06:44:18;;;;;;;2.43;1.50;;;;;;;;;;4936562;29;20489;-73
2024/02/09 06:46:44;;;;;;;1.77;1.60;;;;;;;;;;4936792;29;20504;-73
2024/02/09 06:49:10;;;;;;;3.80;1.77;;;;;;;;;;4948314;29;20512;-74
2024/02/09 06:51:37;;;;;;;1.43;1.23;;;;;;;;;;4941450;29;20452;-74
2024/02/09 06:54:03;;;;;;;2.20;1.47;;;;;;;;;;4948744;28;20418;-74
2024/02/09 06:56:29;;;;;;;2.40;1.73;;;;;;;;;;4936837;29;20426;-74
2024/02/09 06:58:58;;;;;;;3.27;1.43;;;;;;;;;;4953871;29;20495;-74
2024/02/09 07:01:24;;;;;;;2.20;1.63;;;;;;;;;;4946225;28;20468;-74
2024/02/09 07:03:51;;;;;;;3.33;1.40;;;;;;;;;;4936200;29;20461;-74
2024/02/09 07:06:19;;;;;;;2.00;1.37;;;;;;;;;;4940228;29;20421;-74
2024/02/09 07:08:52;;;;;;;2.30;1.50;;;;;;;;;;4939481;29;20480;-76
2024/02/09 07:11:18;;;;;;;4.33;1.53;;;;;;;;;;4940362;29;20444;-74
2024/02/09 07:13:44;;;;;;;2.57;1.53;;;;;;;;;;4940017;29;20424;-74
2024/02/09 07:16:10;;;;;;;2.83;1.37;;;;;;;;;;4936991;29;20457;-74
2024/02/09 07:18:40;;;;;;;3.27;1.50;;;;;;;;;;4935623;29;20428;-75
2024/02/09 07:21:07;;;;;;;4.73;1.60;;;;;;;;;;4935133;29;20469;-75
2024/02/09 07:23:35;;;;;;;4.47;1.57;;;;;;;;;;4936567;29;20909;-74
2024/02/09 07:26:01;;;;;;;3.40;1.93;;;;;;;;;;4944431;29;20433;-72
2024/02/09 07:28:27;;;;;;;2.30;1.60;;;;;;;;;;4952994;28;20421;-72
2024/02/09 07:30:55;;;;;;;5.00;1.63;;;;;;;;;;4950105;29;20425;-74
2024/02/09 07:33:21;;;;;;;3.80;1.33;;;;;;;;;;4946204;29;20417;-74
2024/02/09 07:35:47;;;;;;;2.57;1.47;;;;;;;;;;4954409;29;20436;-73
2024/02/09 07:38:13;;;;;;;4.20;1.80;;;;;;;;;;4954398;29;20417;-74
2024/02/09 07:40:39;;;;;;;3.60;1.73;;;;;;;;;;4953424;29;20984;-73
2024/02/09 07:43:05;;;;;;;2.60;1.50;;;;;;;;;;4953937;28;20831;-74
2024/02/09 07:45:32;;;;;;;3.53;1.70;;;;;;;;;;4954193;29;20572;-74
2024/02/09 07:47:59;;;;;;;3.93;2.17;;;;;;;;;;4954335;28;20424;-73
2024/02/09 07:50:25;;;;;;;1.80;1.30;;;;;;;;;;4955686;28;20540;-74
2024/02/09 07:52:52;;;;;;;5.40;1.60;;;;;;;;;;4951545;29;20904;-75
2024/02/09 07:55:21;;;;;;;3.67;1.90;;;;;;;;;;4934760;29;20437;-75
2024/02/09 07:57:50;;;;;;;5.27;1.67;;;;;;;;;;4940352;29;20420;-75
2024/02/09 08:00:20;;;;;;;1.30;1.20;;;;;;;;;;4954029;29;20421;-76
2024/02/09 08:02:46;;;;;;;3.70;1.60;;;;;;;;;;4953898;28;20464;-75
2024/02/09 08:05:17;;;;;;;2.97;1.83;;;;;;;;;;4953432;29;20955;-76
2024/02/09 08:07:49;;;;;;;6.73;1.97;;;;;;;;;;4953404;28;20507;-76
2024/02/09 08:10:15;;;;;;;2.63;1.50;;;;;;;;;;4934848;29;20445;-76
2024/02/09 08:12:42;;;;;;;4.20;2.03;;;;;;;;;;4946301;29;20448;-75
2024/02/09 08:15:09;;;;;;;4.13;1.83;;;;;;;;;;4952546;29;20468;-75
2024/02/09 08:17:36;;;;;;;5.37;1.67;;;;;;;;;;4954016;28;20417;-76
2024/02/09 08:20:03;;;;;;;2.47;1.50;;;;;;;;;;4953732;29;20590;-76
2024/02/09 08:22:32;;;;;;;2.60;1.80;;;;;;;;;;4947775;29;21058;-76
2024/02/09 08:24:58;;;;;;;2.10;1.77;;;;;;;;;;4953409;28;20452;-74
2024/02/09 08:27:25;;;;;;;6.13;1.90;;;;;;;;;;4935887;28;20421;-76
2024/02/09 08:29:56;;;;;;;3.80;1.60;;;;;;;;;;4953820;28;20413;-76
2024/02/09 08:32:23;;;;;;;4.10;1.67;;;;;;;;;;4955035;28;20436;-76
2024/02/09 08:34:50;;;;;;;1.93;1.73;;;;;;;;;;4959833;28;20527;-75
2024/02/09 08:37:16;;;;;;;2.10;1.50;;;;;;;;;;4959560;28;20440;-75
2024/02/09 08:39:45;;;;;;;4.87;1.70;;;;;;;;;;4959767;28;20428;-74
2024/02/09 08:42:11;;;;;;;4.10;3.00;;;;;;;;;;4960624;28;20421;-76
2024/02/09 08:44:37;;;;;;;5.57;1.90;;;;;;;;;;4960413;28;20467;-75
2024/02/09 08:47:03;;;;;;;3.63;1.90;;;;;;;;;;4959630;28;20423;-76
2024/02/09 08:49:29;;;;;;;5.33;2.37;;;;;;;;;;4958361;29;20483;-76
2024/02/09 08:51:58;;;;;;;4.63;1.70;;;;;;;;;;4960247;28;21067;-75
2024/02/09 08:54:23;;;;;;;6.30;2.43;;;;;;;;;;4957764;28;20446;-75
2024/02/09 08:56:51;;;;;;;2.37;1.90;;;;;;;;;;4943194;28;20438;-75
2024/02/09 08:59:17;;;;;;;2.70;1.97;;;;;;;;;;4958207;28;20447;-75
2024/02/09 09:01:43;;;;;;;2.50;2.10;;;;;;;;;;4958418;28;20916;-75
2024/02/09 09:04:10;;;;;;;4.97;2.20;;;;;;;;;;4957870;28;20614;-75
2024/02/09 09:06:37;;;;;;;4.80;2.40;;;;;;;;;;4940767;29;20416;-75
2024/02/09 09:09:04;;;;;;;4.07;2.27;;;;;;;;;;4952938;28;20427;-75
2024/02/09 09:11:30;;;;;;;2.40;1.90;;;;;;;;;;4957701;28;21080;-75
2024/02/09 09:13:56;;;;;;;6.73;2.47;;;;;;;;;;4960140;28;20436;-76
2024/02/09 09:16:22;;;;;;;6.03;2.00;;;;;;;;;;4960062;29;20420;-74
2024/02/09 09:18:49;;;;;;;5.20;2.27;;;;;;;;;;4959823;28;20888;-75
2024/02/09 09:21:15;;;;;;;10.03;2.17;;;;;;;;;;4959930;28;20503;-75
2024/02/09 09:23:41;;;;;;;6.50;2.10;;;;;;;;;;4959956;29;20547;-76
2024/02/09 09:26:07;;;;;;;4.37;2.17;;;;;;;;;;4959521;28;20447;-76
2024/02/09 09:28:34;;;;;;;3.60;2.20;;;;;;;;;;4959677;29;20467;-75
2024/02/09 09:31:00;;;;;;;2.17;1.60;;;;;;;;;;4958222;29;20948;-76
2024/02/09 09:33:26;;;;;;;5.40;2.00;;;;;;;;;;4959696;29;20420;-76
2024/02/09 09:35:55;;;;;;;3.43;1.73;;;;;;;;;;4959698;28;20994;-76
2024/02/09 09:38:22;;;;;;;7.17;2.20;;;;;;;;;;4959365;28;20427;-76
2024/02/09 09:40:49;;;;;;;3.40;1.80;;;;;;;;;;4959493;28;20416;-77
2024/02/09 09:43:18;;;;;;;7.77;2.10;;;;;;;;;;4959550;29;20483;-76
2024/02/09 09:45:44;;;;;;;4.23;2.27;;;;;;;;;;4956323;28;20532;-76
2024/02/09 09:48:15;;;;;;;2.87;2.03;;;;;;;;;;4956725;29;20499;-76
2024/02/09 09:50:42;;;;;;;5.27;2.00;;;;;;;;;;4947757;28;20425;-75
2024/02/09 09:53:16;;;;;;;2.57;1.67;;;;;;;;;;4937447;29;20469;-74
2024/02/09 09:55:43;;;;;;;6.27;2.00;;;;;;;;;;4955550;29;20483;-75
2024/02/09 09:58:10;;;;;;;4.50;2.13;;;;;;;;;;4956266;29;20904;-73
2024/02/09 10:00:36;;;;;;;5.00;1.90;;;;;;;;;;4955871;29;20425;-75
2024/02/09 10:03:04;;;;;;;4.60;2.53;;;;;;;;;;4956480;28;20523;-74
2024/02/09 10:05:30;;;;;;;6.30;2.70;;;;;;;;;;4955984;28;20436;-74
2024/02/09 10:07:57;;;;;;;5.60;2.47;;;;;;;;;;4956386;29;20947;-74
2024/02/09 10:10:24;;;;;;;3.70;1.90;;;;;;;;;;4953969;29;20904;-73
2024/02/09 10:13:00;;;;;;;4.33;1.80;;;;;;;;;;4956538;28;20413;-74
2024/02/09 10:15:26;;;;;;;6.60;2.63;;;;;;;;;;4952402;29;20452;-75
2024/02/09 10:17:52;;;;;;;5.30;2.00;;;;;;;;;;4937191;29;20977;-72
2024/02/09 10:20:18;;;;;;;6.33;2.10;;;;;;;;;;4942938;29;20435;-73
2024/02/09 10:22:44;;;;;;;6.57;2.10;;;;;;;;;;4941832;29;20461;-73
2024/02/09 10:25:12;;;;;;;3.20;2.20;;;;;;;;;;4935743;29;20497;-73
2024/02/09 10:27:39;;;;;;;2.03;1.70;;;;;;;;;;4936362;29;20418;-73
2024/02/09 10:30:06;;;;;;;4.23;1.80;;;;;;;;;;4936393;29;20414;-73
2024/02/09 10:32:33;;;;;;;5.13;2.07;;;;;;;;;;4936560;29;20421;-73
2024/02/09 10:34:59;;;;;;;4.27;1.80;;;;;;;;;;4936788;29;20441;-73
2024/02/09 10:37:25;;;;;;;7.33;2.10;;;;;;;;;;4937007;29;20418;-73
2024/02/09 10:39:51;;;;;;;2.67;1.70;;;;;;;;;;4936528;29;20413;-74
2024/02/09 10:42:21;;;;;;;4.80;2.00;;;;;;;;;;4936475;29;20417;-73
2024/02/09 10:44:48;;;;;;;2.03;1.60;;;;;;;;;;4936553;29;20441;-73
2024/02/09 10:47:14;;;;;;;2.27;1.40;;;;;;;;;;4936552;29;20418;-73
2024/02/09 10:49:43;;;;;;;4.13;2.10;;;;;;;;;;4936942;29;20413;-73
2024/02/09 10:52:10;;;;;;;3.97;2.33;;;;;;;;;;4936360;29;20608;-73
2024/02/09 10:54:38;;;;;;;4.33;2.03;;;;;;;;;;4936136;29;20434;-74
2024/02/09 10:57:06;;;;;;;4.63;2.40;;;;;;;;;;4935760;29;20778;-74
2024/02/09 10:59:35;;;;;;;6.67;2.40;;;;;;;;;;4934593;29;20949;-74
2024/02/09 11:02:03;;;;;;;8.17;2.50;;;;;;;;;;4936061;29;20417;-73
2024/02/09 11:04:29;;;;;;;5.57;2.10;;;;;;;;;;4936083;29;20450;-73
2024/02/09 11:06:55;;;;;;;6.97;1.60;;;;;;;;;;4935953;29;20429;-74
2024/02/09 11:09:21;;;;;;;4.50;1.73;;;;;;;;;;4936001;29;20418;-73
2024/02/09 11:11:50;;;;;;;3.23;2.00;;;;;;;;;;4936249;29;20432;-73
2024/02/09 11:14:16;;;;;;;5.73;1.70;;;;;;;;;;4935674;29;20512;-73
2024/02/09 11:16:53;;;;;;;6.33;2.30;;;;;;;;;;4935601;29;20909;-73
2024/02/09 11:19:19;;;;;;;5.47;1.90;;;;;;;;;;4935756;29;20829;-74
2024/02/09 11:22:05;;;;;;;3.27;2.10;;;;;;;;;;4935512;29;20418;-73
2024/02/09 11:24:31;;;;;;;4.50;2.00;;;;;;;;;;4937237;29;20453;-73
2024/02/09 11:27:01;;;;;;;5.13;2.60;;;;;;;;;;4954636;28;20488;-73
2024/02/09 11:29:27;;;;;;;7.67;2.00;;;;;;;;;;4954702;28;20396;-73
2024/02/09 11:31:56;;;;;;;6.23;2.17;;;;;;;;;;4954694;28;20404;-73
2024/02/09 11:34:23;;;;;;;4.97;2.40;;;;;;;;;;4954634;28;20487;-73
2024/02/09 11:36:49;;;;;;;6.33;2.83;;;;;;;;;;4954703;28;20958;-74
2024/02/09 11:39:16;;;;;;;8.40;3.30;;;;;;;;;;4954426;28;20405;-73
2024/02/09 11:41:43;;;;;;;9.33;3.10;;;;;;;;;;4954368;28;20397;-73
2024/02/09 11:44:09;;;;;;;2.53;1.70;;;;;;;;;;4954337;28;20487;-74
2024/02/09 11:46:37;;;;;;;3.73;1.93;;;;;;;;;;4954554;28;20529;-73
2024/02/09 11:49:06;;;;;;;6.40;2.43;;;;;;;;;;4954216;28;20413;-74
2024/02/09 11:51:32;;;;;;;5.17;2.50;;;;;;;;;;4954247;28;20424;-73
2024/02/09 11:53:58;;;;;;;7.20;2.30;;;;;;;;;;4954417;28;20416;-73
2024/02/09 11:56:24;;;;;;;2.87;2.23;;;;;;;;;;4954076;28;20785;-73
2024/02/09 11:58:50;;;;;;;5.03;2.23;;;;;;;;;;4954092;28;20764;-74
2024/02/09 12:01:20;;;;;;;8.90;2.20;;;;;;;;;;4954307;28;20409;-74
2024/02/09 12:03:46;;;;;;;3.10;2.10;;;;;;;;;;4954067;28;20576;-73
2024/02/09 12:06:12;;;;;;;4.50;2.37;;;;;;;;;;4954208;28;20956;-73
2024/02/09 12:08:38;;;;;;;4.03;2.50;;;;;;;;;;4953252;28;20413;-74
2024/02/09 12:11:04;;;;;;;8.97;2.47;;;;;;;;;;4953948;28;20468;-73
2024/02/09 12:13:30;;;;;;;2.80;1.70;;;;;;;;;;4953734;28;20416;-73
2024/02/09 12:15:59;;;;;;;4.97;2.03;;;;;;;;;;4991626;23;20499;-72
2024/02/09 12:18:27;;;;;;;5.20;2.27;;;;;;;;;;4964614;29;20405;-74
2024/02/09 12:20:54;;;;;;;3.50;2.00;;;;;;;;;;4954414;28;20401;-73
2024/02/09 12:23:22;;;;;;;4.37;2.50;;;;;;;;;;4954106;28;20455;-73
2024/02/09 12:25:48;;;;;;;6.60;2.17;;;;;;;;;;4939921;28;20528;-73
2024/02/09 12:28:23;;;;;;;6.60;2.00;;;;;;;;;;4934955;29;20410;-73
2024/02/09 12:30:51;;;;;;;5.90;1.90;;;;;;;;;;4933096;29;20418;-73
2024/02/09 12:33:21;;;;;;;2.90;2.20;;;;;;;;;;4934589;29;20413;-70
2024/02/09 12:35:48;;;;;;;5.40;2.40;;;;;;;;;;4919174;29;20449;-71
2024/02/09 12:38:17;;;;;;;4.40;2.10;;;;;;;;;;4915670;29;20410;-71
2024/02/09 12:40:46;;;;;;;5.10;2.23;;;;;;;;;;4926965;29;20494;-71
2024/02/09 12:43:13;;;;;;;8.40;2.70;;;;;;;;;;4950092;29;20469;-71
2024/02/09 12:45:39;;;;;;;9.20;3.40;;;;;;;;;;4949260;29;21025;-71
2024/02/09 12:48:05;;;;;;;12.40;2.77;;;;;;;;;;4950982;29;20419;-75
2024/02/09 12:50:33;;;;;;;5.43;2.83;;;;;;;;;;4939039;29;20438;-75
2024/02/09 12:52:59;;;;;;;9.90;2.77;;;;;;;;;;4934954;29;20478;-75
2024/02/09 12:55:25;;;;;;;4.13;2.37;;;;;;;;;;4950469;29;20452;-72
2024/02/09 12:57:54;;;;;;;7.60;1.83;;;;;;;;;;4946474;29;20411;-73
2024/02/09 13:00:23;;;;;;;13.33;2.73;;;;;;;;;;4941137;29;20792;-72
2024/02/09 13:02:49;;;;;;;3.90;2.10;;;;;;;;;;4925992;29;20504;-72
2024/02/09 13:05:15;;;;;;;11.80;3.13;;;;;;;;;;4925532;29;20429;-72
2024/02/09 13:07:43;;;;;;;4.77;2.03;;;;;;;;;;4930734;29;20482;-73
2024/02/09 13:10:10;;;;;;;4.50;2.10;;;;;;;;;;4928539;29;20421;-72
2024/02/09 13:12:37;;;;;;;6.43;2.73;;;;;;;;;;4935942;29;21033;-72
2024/02/09 13:15:04;;;;;;;5.50;2.50;;;;;;;;;;4921044;29;20456;-71
2024/02/09 13:17:29;;;;;;;3.80;2.13;;;;;;;;;;4936250;29;20417;-71
2024/02/09 13:19:55;;;;;;;3.73;1.70;;;;;;;;;;4937680;29;20413;-71
2024/02/09 13:22:21;;;;;;;2.23;1.70;;;;;;;;;;4938250;29;20465;-71
2024/02/09 13:24:47;;;;;;;6.00;2.10;;;;;;;;;;4936561;29;20441;-72
2024/02/09 13:27:13;;;;;;;5.40;2.67;;;;;;;;;;4936404;29;20465;-71
2024/02/09 13:29:42;;;;;;;3.33;2.00;;;;;;;;;;4937311;29;20441;-72
2024/02/09 13:32:16;;;;;;;5.77;2.40;;;;;;;;;;4937717;29;20902;-72
2024/02/09 13:34:42;;;;;;;5.57;2.50;;;;;;;;;;4937980;29;20441;-72
2024/02/09 13:37:11;;;;;;;7.80;2.40;;;;;;;;;;4937670;29;20844;-71
2024/02/09 13:39:36;;;;;;;8.87;2.47;;;;;;;;;;4936951;29;20410;-72
2024/02/09 13:42:03;;;;;;;4.10;2.23;;;;;;;;;;4930978;29;20426;-72
2024/02/09 13:44:29;;;;;;;2.97;2.23;;;;;;;;;;4921577;29;20516;-72
2024/02/09 13:46:55;;;;;;;6.70;2.50;;;;;;;;;;4929612;29;20430;-72
2024/02/09 13:49:21;;;;;;;4.67;1.87;;;;;;;;;;4926953;29;20421;-73
2024/02/09 13:51:48;;;;;;;8.00;2.50;;;;;;;;;;4932042;29;20487;-73
2024/02/09 13:54:14;;;;;;;10.70;2.50;;;;;;;;;;4931673;29;20834;-72
2024/02/09 13:56:40;;;;;;;16.43;3.00;;;;;;;;;;4929570;29;20516;-72
2024/02/09 13:59:06;;;;;;;7.73;2.83;;;;;;;;;;4936742;29;20421;-72
2024/02/09 14:01:33;;;;;;;7.30;2.33;;;;;;;;;;4924361;29;20434;-73
2024/02/09 14:03:59;;;;;;;5.97;2.47;;;;;;;;;;4932213;29;20968;-73
2024/02/09 14:06:25;;;;;;;5.97;2.70;;;;;;;;;;4936905;29;20437;-72
2024/02/09 14:08:51;;;;;;;5.83;2.47;;;;;;;;;;4936171;29;20422;-72
2024/02/09 14:11:18;;;;;;;5.70;2.93;;;;;;;;;;4921985;29;20427;-72
2024/02/09 14:13:45;;;;;;;5.30;2.60;;;;;;;;;;4920138;29;20444;-73
2024/02/09 14:16:11;;;;;;;8.63;2.90;;;;;;;;;;4927616;29;20465;-72
2024/02/09 14:18:37;;;;;;;11.23;3.70;;;;;;;;;;4925190;29;20495;-72
2024/02/09 14:21:06;;;;;;;6.43;2.90;;;;;;;;;;4934527;29;20504;-71
2024/02/09 14:23:33;;;;;;;5.00;2.93;;;;;;;;;;4932214;29;20564;-72
2024/02/09 14:25:59;;;;;;;5.00;2.47;;;;;;;;;;4938306;28;20478;-72
2024/02/09 14:28:25;;;;;;;6.53;2.97;;;;;;;;;;4936253;29;20430;-72
2024/02/09 14:30:51;;;;;;;13.73;2.90;;;;;;;;;;4935155;29;20419;-74
2024/02/09 14:33:18;;;;;;;8.97;3.27;;;;;;;;;;4931448;29;20749;-73
2024/02/09 14:35:44;;;;;;;5.97;3.03;;;;;;;;;;4921531;29;20521;-73
2024/02/09 14:38:10;;;;;;;7.50;2.90;;;;;;;;;;4934211;29;20503;-73
2024/02/09 14:40:36;;;;;;;7.57;3.27;;;;;;;;;;4942152;29;20456;-72
2024/02/09 14:43:02;;;;;;;7.90;3.30;;;;;;;;;;4921672;29;20958;-76
2024/02/09 14:45:28;;;;;;;11.70;2.90;;;;;;;;;;4918233;29;20522;-77
2024/02/09 14:47:54;;;;;;;6.70;2.87;;;;;;;;;;4918907;29;20417;-76
2024/02/09 14:50:20;;;;;;;5.40;2.77;;;;;;;;;;4934503;29;20422;-76
2024/02/09 14:52:46;;;;;;;7.40;3.43;;;;;;;;;;4936492;29;20424;-77
2024/02/09 14:55:13;;;;;;;8.63;2.67;;;;;;;;;;4934524;29;20524;-76
2024/02/09 14:57:39;;;;;;;10.03;3.40;;;;;;;;;;4917688;29;20418;-75
2024/02/09 15:00:06;;;;;;;6.27;2.90;;;;;;;;;;4917066;29;20415;-74
2024/02/09 15:02:32;;;;;;;14.77;4.03;;;;;;;;;;4915720;29;20529;-74
2024/02/09 15:04:58;;;;;;;4.57;3.10;;;;;;;;;;4917231;29;20611;-73
2024/02/09 15:07:27;;;;;;;4.67;2.47;;;;;;;;;;4917033;29;20466;-73
2024/02/09 15:09:53;;;;;;;4.00;2.63;;;;;;;;;;4916911;29;20883;-73
2024/02/09 15:12:20;;;;;;;6.83;3.23;;;;;;;;;;4917294;29;20414;-73
2024/02/09 15:14:49;;;;;;;7.47;3.03;;;;;;;;;;4916794;29;20490;-73
2024/02/09 15:17:20;;;;;;;3.20;2.50;;;;;;;;;;4917607;29;20506;-73
2024/02/09 15:19:46;;;;;;;4.33;2.70;;;;;;;;;;4934872;29;20409;-73
2024/02/09 15:22:12;;;;;;;4.90;3.07;;;;;;;;;;4935691;29;20433;-73
2024/02/09 15:24:38;;;;;;;8.90;2.73;;;;;;;;;;4935791;29;20929;-74
2024/02/09 15:27:04;;;;;;;10.37;2.73;;;;;;;;;;4936121;29;20410;-74
2024/02/09 15:29:31;;;;;;;5.33;2.47;;;;;;;;;;4952702;28;20409;-74
2024/02/09 15:31:58;;;;;;;7.63;3.03;;;;;;;;;;4946808;28;20458;-74
2024/02/09 15:34:24;;;;;;;4.73;3.03;;;;;;;;;;4933333;28;20435;-73
2024/02/09 15:36:50;;;;;;;5.70;3.00;;;;;;;;;;4923610;29;20766;-73
2024/02/09 15:39:16;;;;;;;6.90;3.00;;;;;;;;;;4934718;29;20476;-73
2024/02/09 15:41:45;;;;;;;6.63;3.60;;;;;;;;;;4935266;29;20425;-73
2024/02/09 15:44:11;;;;;;;7.43;3.60;;;;;;;;;;4935652;29;20469;-74
2024/02/09 15:46:38;;;;;;;8.60;3.70;;;;;;;;;;4935383;29;20414;-74
2024/02/09 15:49:04;;;;;;;12.57;5.60;;;;;;;;;;4934481;29;20418;-74
2024/02/09 15:51:30;;;;;;;10.80;3.70;;;;;;;;;;4935099;29;20491;-74
2024/02/09 15:53:57;;;;;;;8.57;4.07;;;;;;;;;;4935290;29;20414;-71
2024/02/09 15:56:31;;;;;;;8.57;3.73;;;;;;;;;;4932710;29;20447;-74
2024/02/09 15:58:58;;;;;;;8.63;3.40;;;;;;;;;;4916473;29;20395;-73
2024/02/09 16:01:24;;;;;;;9.87;3.80;;;;;;;;;;4915933;29;21001;-73
2024/02/09 16:03:51;;;;;;;8.53;4.03;;;;;;;;;;4915835;29;20965;-73
2024/02/09 16:06:19;;;;;;;7.07;3.30;;;;;;;;;;4915980;29;20930;-73
2024/02/09 16:08:47;;;;;;;6.83;3.70;;;;;;;;;;4917198;29;20427;-73
2024/02/09 16:11:13;;;;;;;8.23;3.67;;;;;;;;;;4915661;29;20423;-74
2024/02/09 16:13:40;;;;;;;9.50;3.93;;;;;;;;;;4914775;29;20486;-74
2024/02/09 16:16:07;;;;;;;9.43;3.80;;;;;;;;;;4916034;29;20875;-73
2024/02/09 16:18:42;;;;;;;5.67;3.70;;;;;;;;;;4921995;29;20465;-73
2024/02/09 16:21:14;;;;;;;8.50;4.73;;;;;;;;;;4941340;29;20440;-73
2024/02/09 16:23:47;;;;;;;14.03;4.80;;;;;;;;;;4941621;29;20469;-73
2024/02/09 16:26:15;;;;;;;10.30;4.33;;;;;;;;;;4941961;29;20430;-74
2024/02/09 16:28:41;;;;;;;9.67;4.90;;;;;;;;;;4943199;29;20429;-74
2024/02/09 16:31:08;;;;;;;8.70;3.70;;;;;;;;;;4938121;29;20418;-71
2024/02/09 16:33:38;;;;;;;7.57;4.70;;;;;;;;;;4933108;29;20429;-72
2024/02/09 16:36:05;;;;;;;8.80;3.60;;;;;;;;;;4928346;29;20442;-70
2024/02/09 16:38:31;;;;;;;10.80;3.80;;;;;;;;;;4915327;29;20437;-73
2024/02/09 16:40:57;;;;;;;5.93;4.07;;;;;;;;;;4926208;29;20913;-73
2024/02/09 16:43:23;;;;;;;12.40;4.10;;;;;;;;;;4934369;29;20497;-71
2024/02/09 16:45:49;;;;;;;6.93;3.80;;;;;;;;;;4934548;29;20496;-71
2024/02/09 16:48:15;;;;;;;12.20;4.67;;;;;;;;;;4935117;29;20501;-71
2024/02/09 16:50:41;;;;;;;10.30;5.63;;;;;;;;;;4934316;29;20496;-70
2024/02/09 16:53:09;;;;;;;12.33;5.03;;;;;;;;;;4934591;29;20428;-71
2024/02/09 16:55:35;;;;;;;10.43;4.77;;;;;;;;;;4937247;29;20897;-72
2024/02/09 16:58:01;;;;;;;11.47;5.00;;;;;;;;;;4938362;29;20469;-73
2024/02/09 17:00:27;;;;;;;10.80;5.97;;;;;;;;;;4937985;29;20521;-72
2024/02/09 17:02:53;;;;;;;22.07;6.30;;;;;;;;;;4939007;29;20552;-72
2024/02/09 17:05:19;;;;;;;9.67;5.77;;;;;;;;;;4937844;29;20429;-71
2024/02/09 17:07:45;;;;;;;9.93;5.70;;;;;;;;;;4936912;29;20496;-72
2024/02/09 17:10:11;;;;;;;9.73;4.67;;;;;;;;;;4932146;29;20514;-72
2024/02/09 17:12:37;;;;;;;7.90;5.33;;;;;;;;;;4918871;29;20461;-73
2024/02/09 17:15:07;;;;;;;15.13;4.30;;;;;;;;;;4918711;29;20466;-73
2024/02/09 17:17:33;;;;;;;13.37;5.37;;;;;;;;;;4918975;29;20808;-73
2024/02/09 17:19:59;;;;;;;9.23;4.90;;;;;;;;;;4918350;29;20513;-72
2024/02/09 17:22:26;;;;;;;7.83;4.90;;;;;;;;;;4927534;29;20517;-72
2024/02/09 17:24:52;;;;;;;8.07;4.40;;;;;;;;;;4937628;29;20433;-72
2024/02/09 17:27:18;;;;;;;13.00;6.10;;;;;;;;;;4936062;29;20410;-72
2024/02/09 17:29:44;;;;;;;10.90;5.33;;;;;;;;;;4935979;29;20433;-72
2024/02/09 17:32:10;;;;;;;9.50;5.40;;;;;;;;;;4937550;29;20422;-73
2024/02/09 17:34:36;;;;;;;8.50;4.43;;;;;;;;;;4937367;29;20445;-72
2024/02/09 17:37:02;;;;;;;11.90;5.10;;;;;;;;;;4937792;29;20504;-72
2024/02/09 17:39:31;;;;;;;8.73;4.00;;;;;;;;;;4937135;29;21098;-72
2024/02/09 17:41:57;;;;;;;10.90;6.13;;;;;;;;;;4935811;29;20421;-72
2024/02/09 17:44:23;;;;;;;19.20;5.90;;;;;;;;;;4937076;29;20981;-72
2024/02/09 17:46:49;;;;;;;12.37;4.90;;;;;;;;;;4937092;29;20500;-73
2024/02/09 17:49:15;;;;;;;8.87;4.80;;;;;;;;;;4936849;29;20417;-72
2024/02/09 17:51:41;;;;;;;5.30;3.53;;;;;;;;;;4937214;29;20421;-72
2024/02/09 17:54:07;;;;;;;7.70;3.93;;;;;;;;;;4937226;29;20425;-72
2024/02/09 17:56:33;;;;;;;8.70;4.40;;;;;;;;;;4935614;29;20422;-74
2024/02/09 17:58:59;;;;;;;8.57;4.83;;;;;;;;;;4919252;29;20430;-73
2024/02/09 18:01:34;;;;;;;10.20;4.23;;;;;;;;;;4929260;28;20434;-73
2024/02/09 18:04:00;;;;;;;8.50;4.00;;;;;;;;;;4933914;29;20496;-74
2024/02/09 18:06:30;;;;;;;6.53;4.20;;;;;;;;;;4939665;29;20453;-71
2024/02/09 18:08:56;;;;;;;7.93;4.33;;;;;;;;;;4937160;29;20414;-72
2024/02/09 18:11:22;;;;;;;10.43;4.83;;;;;;;;;;4931553;29;20796;-73
2024/02/09 18:13:48;;;;;;;12.67;5.03;;;;;;;;;;4936505;29;20476;-73
2024/02/09 18:16:15;;;;;;;5.83;4.70;;;;;;;;;;4931629;29;20515;-72
2024/02/09 18:18:42;;;;;;;9.53;5.40;;;;;;;;;;4924270;29;20474;-73
2024/02/09 18:21:08;;;;;;;17.10;7.10;;;;;;;;;;4933041;29;20427;-73
2024/02/09 18:23:33;;;;;;;11.50;6.40;;;;;;;;;;4929051;29;20470;-72
2024/02/09 18:25:59;;;;;;;11.27;5.67;;;;;;;;;;4930448;29;20437;-74
2024/02/09 18:28:25;;;;;;;9.53;6.10;;;;;;;;;;4928575;29;20932;-70
2024/02/09 18:30:51;;;;;;;9.77;4.97;;;;;;;;;;4928427;29;20425;-72
2024/02/09 18:33:17;;;;;;;11.97;5.40;;;;;;;;;;4926589;29;20445;-73
2024/02/09 18:35:43;;;;;;;18.13;5.40;;;;;;;;;;4932741;29;20474;-72
2024/02/09 18:38:11;;;;;;;14.20;5.00;;;;;;;;;;4931737;29;20926;-71
2024/02/09 18:40:36;;;;;;;8.37;4.90;;;;;;;;;;4949908;29;20501;-72
2024/02/09 18:43:02;;;;;;;14.93;6.13;;;;;;;;;;4955357;29;20449;-72
2024/02/09 18:45:28;;;;;;;9.43;4.87;;;;;;;;;;4951536;29;20430;-71
2024/02/09 18:47:54;;;;;;;12.50;4.70;;;;;;;;;;4940862;29;20444;-71
2024/02/09 18:50:20;;;;;;;12.13;6.67;;;;;;;;;;4929873;29;20413;-71
2024/02/09 18:52:46;;;;;;;10.27;5.07;;;;;;;;;;4936460;29;20844;-71
2024/02/09 18:55:14;;;;;;;13.70;5.70;;;;;;;;;;4934007;29;20491;-72
2024/02/09 18:57:43;;;;;;;10.40;5.97;;;;;;;;;;4935940;29;20424;-72
2024/02/09 19:00:09;;;;;;;10.80;5.53;;;;;;;;;;4935951;29;20984;-70
2024/02/09 19:02:39;;;;;;;10.13;6.70;;;;;;;;;;4935960;29;20418;-70
2024/02/09 19:05:09;;;;;;;16.50;5.70;;;;;;;;;;4935905;29;20484;-71
2024/02/09 19:07:36;;;;;;;11.23;6.60;;;;;;;;;;4935849;29;20417;-70
2024/02/09 19:10:02;;;;;;;13.47;6.67;;;;;;;;;;4934987;29;20983;-69
2024/02/09 19:12:28;;;;;;;11.40;6.37;;;;;;;;;;4935630;29;20505;-70
2024/02/09 19:14:55;;;;;;;10.13;6.87;;;;;;;;;;4935391;29;20852;-70
2024/02/09 19:17:21;;;;;;;17.87;9.10;;;;;;;;;;4916131;29;20478;-71
2024/02/09 19:19:48;;;;;;;12.90;8.43;;;;;;;;;;4922472;29;20808;-69
2024/02/09 19:22:14;;;;;;;11.10;6.90;;;;;;;;;;4926450;29;20418;-70
2024/02/09 19:24:41;;;;;;;12.77;6.77;;;;;;;;;;4934440;29;20476;-70
2024/02/09 19:27:12;;;;;;;16.00;8.80;;;;;;;;;;4934714;29;20421;-70
2024/02/09 19:29:38;;;;;;;14.30;8.17;;;;;;;;;;4933929;29;20472;-70
2024/02/09 19:32:04;;;;;;;9.60;7.00;;;;;;;;;;4916020;29;20447;-70
2024/02/09 19:34:30;;;;;;;10.90;6.33;;;;;;;;;;4922200;29;20448;-70
2024/02/09 19:36:56;;;;;;;11.10;7.00;;;;;;;;;;4934641;29;20422;-71
2024/02/09 19:39:22;;;;;;;15.33;7.80;;;;;;;;;;4934363;29;20463;-70
2024/02/09 19:41:50;;;;;;;10.97;6.70;;;;;;;;;;4934654;29;20418;-72
2024/02/09 19:44:17;;;;;;;9.90;6.50;;;;;;;;;;4935918;29;20519;-71
2024/02/09 19:46:50;;;;;;;10.80;7.17;;;;;;;;;;4929123;29;20434;-71
2024/02/09 19:49:17;;;;;;;11.30;7.10;;;;;;;;;;4933128;29;20842;-71
2024/02/09 19:51:47;;;;;;;13.93;6.90;;;;;;;;;;4938235;29;20457;-72
2024/02/09 19:54:20;;;;;;;11.77;7.43;;;;;;;;;;4923676;29;20414;-71
2024/02/09 19:56:55;;;;;;;11.87;6.13;;;;;;;;;;4925017;29;20417;-71
2024/02/09 19:59:21;;;;;;;12.80;7.10;;;;;;;;;;4926915;29;20425;-71
2024/02/09 20:01:48;;;;;;;12.30;6.90;;;;;;;;;;4925648;29;20430;-73
2024/02/09 20:04:17;;;;;;;11.10;7.00;;;;;;;;;;4923342;29;20466;-71
2024/02/09 20:06:44;;;;;;;16.93;10.07;;;;;;;;;;4931658;29;20536;-71
2024/02/09 20:09:10;;;;;;;14.63;8.03;;;;;;;;;;4926301;29;20416;-72
2024/02/09 20:11:39;;;;;;;12.60;7.10;;;;;;;;;;4926440;29;20456;-73
2024/02/09 20:14:05;;;;;;;14.00;7.73;;;;;;;;;;4923089;29;20925;-72
2024/02/09 20:16:32;;;;;;;11.40;7.50;;;;;;;;;;4922860;29;20786;-72
2024/02/09 20:18:58;;;;;;;13.23;7.40;;;;;;;;;;4925630;29;20433;-72
2024/02/09 20:21:24;;;;;;;15.77;7.63;;;;;;;;;;4926212;29;20420;-72
2024/02/09 20:23:54;;;;;;;14.03;7.33;;;;;;;;;;4923357;29;20616;-71
2024/02/09 20:26:21;;;;;;;19.77;7.63;;;;;;;;;;4925966;29;20470;-71
2024/02/09 20:28:47;;;;;;;11.00;6.43;;;;;;;;;;4927131;29;20433;-70
2024/02/09 20:31:14;;;;;;;12.77;7.90;;;;;;;;;;4921035;29;20509;-70
2024/02/09 20:33:40;;;;;;;11.07;8.60;;;;;;;;;;4928388;29;20438;-71
2024/02/09 20:36:09;;;;;;;9.37;6.93;;;;;;;;;;4933590;29;20532;-71
2024/02/09 20:38:36;;;;;;;13.05;8.10;;;;;;;;;;4933107;29;20834;-76